Time;durP1;ratioP1;P1;durP2;ratioP2;P2;SDS_P1;SDS_P2;PMS_P1;PMS_P2;Temp;Humidity;BMP_temperature;BMP_pressure;BME280_temperature;BME280_humidity;BME280_pressure;Samples;Min_cycle;Max_cycle;Signal;HPM_P1;HPM_P2
2021/01/24 00:01:11;;;;;;;9.87;7.17;;;;;;;1.76;89.91;96658.22;5050194;28;20041;-62
2021/01/24 00:03:36;;;;;;;11.33;7.40;;;;;;;1.78;90.44;96661.56;5053866;28;20040;-62
2021/01/24 00:06:02;;;;;;;9.27;6.83;;;;;;;1.75;90.40;96652.31;5057001;28;20036;-62
2021/01/24 00:08:27;;;;;;;9.00;6.17;;;;;;;1.78;89.78;96657.31;5057236;28;20416;-62
2021/01/24 00:10:53;;;;;;;11.63;7.77;;;;;;;1.69;90.12;96657.50;5056093;28;20381;-62
2021/01/24 00:13:18;;;;;;;14.53;8.10;;;;;;;1.68;90.42;96658.34;5045023;28;20060;-62
2021/01/24 00:15:43;;;;;;;11.80;7.97;;;;;;;1.69;90.50;96652.44;5039306;28;20032;-62
2021/01/24 00:18:09;;;;;;;11.10;7.63;;;;;;;1.63;90.81;96655.06;5056487;28;20132;-62
2021/01/24 00:20:34;;;;;;;12.73;7.83;;;;;;;1.64;90.99;96649.16;5056204;28;20094;-62
2021/01/24 00:23:00;;;;;;;13.20;8.43;;;;;;;1.68;90.64;96650.75;5057227;28;20072;-62
2021/01/24 00:25:25;;;;;;;10.70;7.47;;;;;;;1.66;90.65;96646.59;5055584;28;20047;-62
2021/01/24 00:27:51;;;;;;;11.67;7.27;;;;;;;1.64;90.36;96639.06;5056991;28;20041;-63
2021/01/24 00:30:18;;;;;;;11.47;7.20;;;;;;;1.67;90.34;96641.50;5055953;28;20029;-63
2021/01/24 00:32:43;;;;;;;12.67;7.93;;;;;;;1.75;90.40;96649.81;5040696;28;20057;-63
2021/01/24 00:35:10;;;;;;;12.67;8.13;;;;;;;1.74;89.93;96645.59;5051271;28;20115;-62
2021/01/24 00:37:36;;;;;;;11.97;7.10;;;;;;;1.73;90.08;96646.47;5054220;28;20033;-62
2021/01/24 00:40:04;;;;;;;14.70;8.10;;;;;;;1.81;90.49;96642.13;5038158;28;20081;-63
2021/01/24 00:42:30;;;;;;;17.53;9.37;;;;;;;1.73;90.37;96635.53;5055307;28;20040;-62
2021/01/24 00:44:55;;;;;;;12.83;7.93;;;;;;;1.76;90.24;96641.38;5056225;28;20036;-62
2021/01/24 00:47:20;;;;;;;14.20;7.77;;;;;;;1.77;90.30;96642.22;5055411;28;20052;-62
2021/01/24 00:49:46;;;;;;;11.10;7.47;;;;;;;1.72;90.04;96631.34;5055969;28;20118;-62
2021/01/24 00:52:11;;;;;;;12.93;7.07;;;;;;;1.76;90.19;96633.78;5037231;28;20025;-62
2021/01/24 00:54:37;;;;;;;10.47;7.33;;;;;;;1.77;90.05;96632.09;5056232;28;20447;-62
2021/01/24 00:57:02;;;;;;;13.13;7.97;;;;;;;1.74;90.02;96634.69;5054762;28;20039;-63
2021/01/24 00:59:28;;;;;;;10.33;7.90;;;;;;;1.75;90.20;96624.53;5055745;28;20033;-62
2021/01/24 01:01:53;;;;;;;12.03;7.37;;;;;;;1.76;89.92;96627.91;5054414;28;20071;-62
2021/01/24 01:04:18;;;;;;;12.87;7.47;;;;;;;1.75;89.61;96627.06;5056375;28;20370;-62
2021/01/24 01:06:44;;;;;;;11.27;8.27;;;;;;;1.73;89.58;96623.75;5053800;28;20045;-62
2021/01/24 01:09:10;;;;;;;13.73;6.97;;;;;;;1.81;89.29;96629.50;5056498;28;20091;-62
2021/01/24 01:11:35;;;;;;;10.17;6.90;;;;;;;1.77;88.96;96627.06;5054604;28;20060;-63
2021/01/24 01:14:00;;;;;;;9.83;6.77;;;;;;;1.78;88.74;96621.16;5055323;28;20083;-62
2021/01/24 01:16:26;;;;;;;8.07;6.07;;;;;;;1.80;88.81;96621.94;5054880;28;20123;-62
2021/01/24 01:18:51;;;;;;;9.83;6.67;;;;;;;1.79;88.46;96618.56;5053985;28;20048;-61
2021/01/24 01:21:17;;;;;;;8.17;5.70;;;;;;;1.74;89.18;96620.34;5054677;28;20444;-62
2021/01/24 01:23:42;;;;;;;9.97;6.00;;;;;;;1.74;88.62;96622.06;5054760;28;20037;-62
2021/01/24 01:26:08;;;;;;;8.40;5.73;;;;;;;1.80;88.34;96615.19;5054971;28;20109;-62
2021/01/24 01:28:33;;;;;;;10.80;6.23;;;;;;;1.73;88.78;96616.16;5054566;28;20453;-62
2021/01/24 01:30:59;;;;;;;10.43;5.83;;;;;;;1.79;88.79;96600.91;5055218;28;20037;-62
2021/01/24 01:33:24;;;;;;;9.97;5.73;;;;;;;1.72;88.84;96598.50;5035875;28;20033;-63
2021/01/24 01:35:49;;;;;;;8.63;5.73;;;;;;;1.72;88.61;96586.72;5054314;28;20033;-62
2021/01/24 01:38:15;;;;;;;9.10;5.40;;;;;;;1.70;88.83;96585.91;5054133;28;20041;-61
2021/01/24 01:40:40;;;;;;;8.53;6.27;;;;;;;1.69;88.68;96584.25;5055761;28;20119;-62
2021/01/24 01:43:06;;;;;;;9.07;5.43;;;;;;;1.71;88.93;96572.41;5048567;28;20461;-62
2021/01/24 01:45:31;;;;;;;10.03;6.10;;;;;;;1.74;88.65;96579.94;5055560;28;20114;-62
2021/01/24 01:47:57;;;;;;;11.37;6.40;;;;;;;1.75;88.58;96568.97;5053408;28;20388;-62
2021/01/24 01:50:23;;;;;;;9.50;5.80;;;;;;;1.73;89.10;96568.19;5054439;28;20039;-62
2021/01/24 01:52:48;;;;;;;9.97;6.00;;;;;;;1.67;88.96;96577.53;5053350;28;20115;-62
2021/01/24 01:55:14;;;;;;;8.30;6.03;;;;;;;1.69;89.09;96579.19;5055151;28;20120;-62
2021/01/24 01:57:40;;;;;;;8.73;6.03;;;;;;;1.68;89.31;96575.00;5053568;28;20037;-62
2021/01/24 02:00:07;;;;;;;8.30;6.27;;;;;;;1.70;89.50;96578.31;5053725;28;20439;-63
2021/01/24 02:02:54;;;;;;;7.27;5.90;;;;;;;1.71;89.03;96569.06;5053552;28;20043;-63
2021/01/24 02:05:53;;;;;;;9.33;5.97;;;;;;;1.79;89.28;96575.63;5053999;28;20038;-63
2021/01/24 02:08:26;;;;;;;7.13;5.67;;;;;;;1.81;89.85;96576.47;5053804;28;20041;-63
2021/01/24 02:10:59;;;;;;;8.00;5.53;;;;;;;1.79;89.81;96565.53;5054737;28;20045;-62
2021/01/24 02:13:46;;;;;;;9.27;5.67;;;;;;;1.80;90.16;96556.25;5040766;28;20040;-63
2021/01/24 02:16:14;;;;;;;9.27;5.83;;;;;;;1.79;89.75;96557.94;5039923;28;20032;-62
2021/01/24 02:18:42;;;;;;;9.57;5.87;;;;;;;1.72;89.87;96558.94;5053539;28;20095;-62
2021/01/24 02:21:31;;;;;;;13.73;7.83;;;;;;;1.70;89.11;96560.63;5053932;28;20468;-62
2021/01/24 02:24:00;;;;;;;9.53;5.80;;;;;;;1.63;89.49;96568.34;5052640;28;20434;-62
2021/01/24 02:27:03;;;;;;;9.13;5.97;;;;;;;1.60;89.98;96574.31;5054889;28;20413;-62
2021/01/24 02:29:45;;;;;;;10.60;6.77;;;;;;;1.57;89.84;96576.06;5052968;28;20453;-62
2021/01/24 02:32:15;;;;;;;11.60;6.40;;;;;;;1.54;89.91;96579.44;5054463;28;20080;-62
2021/01/24 02:34:43;;;;;;;7.67;5.67;;;;;;;1.52;89.93;96581.19;5052725;28;20091;-63
2021/01/24 02:37:09;;;;;;;8.80;5.07;;;;;;;1.48;89.97;96578.72;5054147;28;20057;-62
2021/01/24 02:39:34;;;;;;;7.60;5.57;;;;;;;1.53;90.15;96576.97;5052763;28;20496;-63
2021/01/24 02:42:01;;;;;;;6.03;4.50;;;;;;;1.57;90.34;96583.63;5052697;28;20095;-63
2021/01/24 02:44:27;;;;;;;7.93;4.60;;;;;;;1.58;90.08;96587.78;5034185;28;20037;-63
2021/01/24 02:46:57;;;;;;;14.03;5.50;;;;;;;1.73;89.61;96579.97;5054916;28;20032;-63
2021/01/24 02:49:24;;;;;;;10.10;5.97;;;;;;;1.69;89.44;96581.72;5053549;28;20033;-62
2021/01/24 02:51:51;;;;;;;10.87;5.90;;;;;;;1.68;89.65;96577.53;5053817;28;20048;-62
2021/01/24 02:54:18;;;;;;;9.73;5.73;;;;;;;1.65;89.39;96581.81;5053598;28;20071;-62
2021/01/24 02:56:43;;;;;;;7.13;4.77;;;;;;;1.63;89.62;96588.56;5054115;28;20116;-62
2021/01/24 02:59:09;;;;;;;6.13;4.10;;;;;;;1.63;89.30;96586.88;5054567;28;20120;-62
2021/01/24 03:01:35;;;;;;;10.57;4.33;;;;;;;1.59;89.33;96584.41;5055046;28;20044;-63
2021/01/24 03:04:02;;;;;;;9.10;4.90;;;;;;;1.57;89.13;96574.34;5055505;28;20633;-62
2021/01/24 03:06:28;;;;;;;6.63;4.00;;;;;;;1.55;89.37;96568.50;5054973;28;20349;-62
2021/01/24 03:08:53;;;;;;;6.70;4.63;;;;;;;1.57;89.59;96576.06;5055427;28;20039;-62
2021/01/24 03:11:21;;;;;;;6.77;4.63;;;;;;;1.49;89.71;96576.16;5054629;28;20130;-62
2021/01/24 03:13:54;;;;;;;5.17;3.83;;;;;;;1.46;90.45;96585.47;5038633;28;20041;-62
2021/01/24 03:16:19;;;;;;;6.13;3.77;;;;;;;1.37;90.53;96587.28;5045622;28;20306;-62
2021/01/24 03:18:46;;;;;;;7.37;4.30;;;;;;;1.38;90.88;96595.69;5053262;28;20033;-62
2021/01/24 03:21:14;;;;;;;7.20;4.17;;;;;;;1.46;90.70;96606.50;5052114;28;20419;-62
2021/01/24 03:23:40;;;;;;;6.93;4.27;;;;;;;1.36;90.17;96605.81;5053249;28;20421;-62
2021/01/24 03:26:07;;;;;;;6.20;3.90;;;;;;;1.42;90.23;96604.91;5052629;28;20053;-61
2021/01/24 03:28:35;;;;;;;5.03;3.23;;;;;;;1.29;90.37;96594.16;5053141;28;20094;-62
2021/01/24 03:31:06;;;;;;;5.90;4.07;;;;;;;1.28;90.62;96591.66;5051884;28;20110;-61
2021/01/24 03:33:33;;;;;;;6.20;4.43;;;;;;;1.25;90.54;96589.19;5035858;28;20037;-61
2021/01/24 03:35:58;;;;;;;7.43;4.40;;;;;;;1.12;90.27;96588.53;5046811;28;20030;-63
2021/01/24 03:38:23;;;;;;;6.37;4.20;;;;;;;1.11;90.48;96593.59;5033051;28;20044;-62
2021/01/24 03:40:49;;;;;;;9.90;5.33;;;;;;;1.05;90.41;96594.53;5039295;28;20116;-61
2021/01/24 03:43:14;;;;;;;10.67;6.20;;;;;;;0.95;90.79;96587.09;5041452;28;20163;-62
2021/01/24 03:45:40;;;;;;;8.50;5.60;;;;;;;0.96;91.10;96581.22;5032751;28;20042;-62
2021/01/24 03:48:05;;;;;;;11.20;6.60;;;;;;;0.90;90.59;96577.91;5052315;28;20395;-63
2021/01/24 03:50:31;;;;;;;11.33;6.93;;;;;;;0.84;90.90;96574.66;5052049;28;20036;-62
2021/01/24 03:52:56;;;;;;;9.93;6.87;;;;;;;0.78;91.00;96577.25;5052820;28;20040;-62
2021/01/24 03:55:21;;;;;;;11.33;6.93;;;;;;;0.76;91.49;96584.84;5052050;28;20373;-61
2021/01/24 03:57:47;;;;;;;10.90;7.40;;;;;;;0.77;91.12;96585.66;5052355;28;20117;-62
2021/01/24 04:00:13;;;;;;;12.40;7.80;;;;;;;0.69;91.24;96583.25;5052071;28;20449;-62
2021/01/24 04:02:38;;;;;;;11.87;6.43;;;;;;;0.62;91.04;96589.25;5052382;28;20069;-62
2021/01/24 04:05:05;;;;;;;9.20;6.17;;;;;;;0.59;90.92;96589.28;5052695;28;20456;-62
2021/01/24 04:07:30;;;;;;;10.60;6.83;;;;;;;0.55;90.90;96581.78;5047741;28;20072;-62
2021/01/24 04:09:56;;;;;;;10.33;7.17;;;;;;;0.53;91.19;96580.94;5052356;28;20067;-62
2021/01/24 04:12:21;;;;;;;11.60;6.80;;;;;;;0.49;91.67;96572.59;5046499;28;20116;-62
2021/01/24 04:14:46;;;;;;;13.30;6.77;;;;;;;0.44;91.75;96577.69;5049831;28;20033;-62
2021/01/24 04:17:12;;;;;;;11.73;6.77;;;;;;;0.49;91.94;96572.59;5051532;28;20122;-62
2021/01/24 04:19:37;;;;;;;13.70;7.70;;;;;;;0.49;91.91;96571.75;5053236;28;20044;-62
2021/01/24 04:22:03;;;;;;;12.53;6.73;;;;;;;0.44;91.68;96571.81;5052024;28;20047;-62
2021/01/24 04:24:29;;;;;;;15.80;7.40;;;;;;;0.36;91.58;96571.09;5054403;28;20033;-62
2021/01/24 04:26:54;;;;;;;11.63;7.07;;;;;;;0.28;91.41;96571.19;5055506;28;20119;-62
2021/01/24 04:29:20;;;;;;;12.10;7.27;;;;;;;0.24;91.64;96573.75;5056232;28;20042;-62
2021/01/24 04:31:46;;;;;;;10.00;6.57;;;;;;;0.17;91.39;96572.16;5047464;28;20057;-62
2021/01/24 04:34:12;;;;;;;9.37;6.37;;;;;;;0.19;91.72;96570.44;5036259;28;20044;-62
2021/01/24 04:36:38;;;;;;;11.93;7.43;;;;;;;0.13;92.01;96573.88;5040971;28;20029;-62
2021/01/24 04:39:05;;;;;;;10.67;6.73;;;;;;;0.24;92.58;96602.31;5056081;28;20464;-62
2021/01/24 04:41:34;;;;;;;11.47;6.83;;;;;;;0.46;92.27;96597.84;5054791;28;20037;-62
2021/01/24 04:44:00;;;;;;;12.77;6.83;;;;;;;0.45;91.97;96586.94;5038487;28;20335;-61
2021/01/24 04:46:26;;;;;;;10.13;5.53;;;;;;;0.50;91.81;96574.28;5037767;28;20068;-62
2021/01/24 04:48:51;;;;;;;14.20;6.17;;;;;;;0.41;91.46;96592.03;5056683;28;20120;-62
2021/01/24 04:51:17;;;;;;;14.27;6.20;;;;;;;0.41;91.48;96584.47;5053999;28;20063;-62
2021/01/24 04:53:44;;;;;;;10.63;7.23;;;;;;;0.35;91.56;96595.44;5035295;28;20523;-63
2021/01/24 04:56:10;;;;;;;12.50;6.83;;;;;;;0.34;91.98;96593.78;5035316;28;20033;-63
2021/01/24 04:58:37;;;;;;;15.10;7.03;;;;;;;0.30;91.89;96606.44;5048057;28;20103;-63
2021/01/24 05:01:02;;;;;;;13.10;7.10;;;;;;;0.26;92.01;96615.72;5055641;28;20071;-63
2021/01/24 05:03:28;;;;;;;12.67;7.90;;;;;;;0.26;92.29;96620.75;5055306;28;20064;-63
2021/01/24 05:05:53;;;;;;;12.57;7.43;;;;;;;0.31;92.02;96618.19;5055521;28;20040;-63
2021/01/24 05:08:18;;;;;;;17.73;8.07;;;;;;;0.35;92.25;96620.66;5055200;28;20343;-63
2021/01/24 05:10:46;;;;;;;13.30;7.67;;;;;;;0.41;91.97;96622.28;5055256;28;20083;-63
2021/01/24 05:13:11;;;;;;;13.70;8.43;;;;;;;0.36;91.88;96621.50;5054655;28;20058;-63
2021/01/24 05:15:37;;;;;;;14.33;7.80;;;;;;;0.37;92.31;96618.97;5037853;28;20112;-62
2021/01/24 05:18:03;;;;;;;10.37;7.40;;;;;;;0.40;91.81;96623.97;5043624;28;20090;-62
2021/01/24 05:20:31;;;;;;;13.53;8.43;;;;;;;0.42;91.79;96624.75;5053733;28;20065;-62
2021/01/24 05:22:58;;;;;;;12.63;8.17;;;;;;;0.40;91.77;96615.56;5054729;28;20045;-63
2021/01/24 05:25:28;;;;;;;11.73;7.63;;;;;;;0.40;91.80;96625.63;5055242;28;20460;-62
2021/01/24 05:27:54;;;;;;;12.10;7.87;;;;;;;0.33;91.81;96626.56;5054406;28;20045;-62
2021/01/24 05:30:31;;;;;;;13.93;8.40;;;;;;;0.26;91.71;96630.00;5054950;28;20446;-61
2021/01/24 05:32:58;;;;;;;12.83;7.00;;;;;;;0.18;91.53;96629.25;5054349;28;20076;-61
2021/01/24 05:35:23;;;;;;;12.53;8.20;;;;;;;0.14;91.72;96630.13;5036385;28;20043;-63
2021/01/24 05:37:49;;;;;;;12.43;7.27;;;;;;;0.14;91.80;96632.66;5054204;28;20111;-61
2021/01/24 05:40:15;;;;;;;14.10;8.77;;;;;;;0.15;91.88;96629.28;5055371;28;20082;-61
2021/01/24 05:42:40;;;;;;;13.20;7.40;;;;;;;0.17;92.23;96635.97;5051796;28;20037;-62
2021/01/24 05:45:10;;;;;;;13.70;8.00;;;;;;;0.23;91.96;96640.94;5055286;28;20564;-63
2021/01/24 05:47:37;;;;;;;14.47;7.10;;;;;;;0.16;91.74;96651.13;5053639;28;20037;-62
2021/01/24 05:50:07;;;;;;;11.90;8.23;;;;;;;0.14;91.86;96657.84;5055329;28;20123;-62
2021/01/24 05:52:33;;;;;;;14.53;9.47;;;;;;;0.10;91.83;96654.53;5053342;28;20079;-63
2021/01/24 05:54:58;;;;;;;15.83;9.97;;;;;;;0.06;91.93;96667.16;5055557;28;20362;-63
2021/01/24 05:57:24;;;;;;;16.07;9.57;;;;;;;0.07;91.89;96663.78;5054082;28;20109;-63
2021/01/24 05:59:51;;;;;;;12.23;7.40;;;;;;;0.09;91.89;96672.16;5054371;28;20033;-63
2021/01/24 06:02:18;;;;;;;12.70;8.10;;;;;;;0.04;91.77;96679.78;5052494;28;20047;-63
2021/01/24 06:04:45;;;;;;;13.33;8.60;;;;;;;0.01;92.05;96679.78;5052866;28;20653;-62
2021/01/24 06:07:12;;;;;;;11.23;6.67;;;;;;;0.02;92.07;96688.19;5053485;28;20449;-62
2021/01/24 06:09:38;;;;;;;11.23;7.20;;;;;;;0.02;92.18;96685.66;5053772;28;20048;-63
2021/01/24 06:12:06;;;;;;;11.47;7.10;;;;;;;0.02;92.35;96691.53;5050504;28;20526;-62
2021/01/24 06:14:34;;;;;;;10.77;7.27;;;;;;;0.07;92.54;96692.34;5048595;28;20029;-61
2021/01/24 06:17:02;;;;;;;10.80;6.43;;;;;;;0.10;92.28;96686.44;5053809;28;20334;-62
2021/01/24 06:19:35;;;;;;;11.53;7.27;;;;;;;0.08;92.51;96683.09;5054233;28;20509;-63
2021/01/24 06:22:01;;;;;;;13.27;6.83;;;;;;;0.04;92.14;96686.50;5052337;28;20350;-62
2021/01/24 06:24:34;;;;;;;17.63;7.23;;;;;;;0.05;92.28;96698.22;5052144;28;20036;-62
2021/01/24 06:27:03;;;;;;;11.83;7.47;;;;;;;0.03;92.42;96702.47;5051752;28;20043;-62
2021/01/24 06:29:30;;;;;;;9.37;6.07;;;;;;;0.03;92.12;96723.44;5054003;28;20033;-62
2021/01/24 06:31:56;;;;;;;13.10;7.37;;;;;;;-0.01;92.28;96737.75;5052847;28;20080;-62
2021/01/24 06:34:38;;;;;;;11.53;7.47;;;;;;;0.04;92.05;96734.34;5053388;28;20048;-62
2021/01/24 06:37:21;;;;;;;13.20;7.63;;;;;;;0.05;92.19;96738.53;5052765;28;20413;-61
2021/01/24 06:39:52;;;;;;;13.33;7.73;;;;;;;0.01;92.08;96747.78;5043238;28;20038;-62
2021/01/24 06:42:46;;;;;;;11.87;6.60;;;;;;;0.00;91.91;96746.16;5038648;28;20024;-62
2021/01/24 06:45:27;;;;;;;14.87;7.57;;;;;;;-0.07;91.68;96747.84;5041604;28;20041;-62
2021/01/24 06:47:57;;;;;;;13.70;6.97;;;;;;;-0.11;92.19;96753.78;5042444;28;20054;-62
2021/01/24 06:50:47;;;;;;;11.20;7.20;;;;;;;-0.04;91.98;96762.94;5052202;28;20079;-62
2021/01/24 06:53:14;;;;;;;12.23;7.80;;;;;;;-0.12;92.29;96764.69;5052139;28;20480;-62
2021/01/24 06:55:52;;;;;;;15.03;8.90;;;;;;;-0.03;92.03;96766.28;5053855;28;20041;-62
2021/01/24 06:58:22;;;;;;;16.80;7.83;;;;;;;-0.02;92.35;96761.25;5052964;28;20175;-63
2021/01/24 07:00:47;;;;;;;14.50;8.67;;;;;;;-0.09;92.22;96769.72;5053510;28;20059;-62
2021/01/24 07:03:17;;;;;;;13.33;8.03;;;;;;;-0.04;92.38;96775.53;5052132;28;20450;-62
2021/01/24 07:05:43;;;;;;;13.47;7.93;;;;;;;-0.09;92.28;96768.88;5053881;28;20472;-62
2021/01/24 07:08:27;;;;;;;15.37;9.20;;;;;;;-0.01;91.99;96783.09;5052693;28;20033;-62
2021/01/24 07:10:53;;;;;;;15.55;7.82;;;;;;;-0.11;91.91;96778.94;5053775;28;20048;-62
2021/01/24 07:13:30;;;;;;;15.00;8.47;;;;;;;-0.02;91.80;96775.53;5050361;28;20029;-62
2021/01/24 07:15:56;;;;;;;15.63;7.83;;;;;;;-0.05;92.10;96771.38;5035548;28;20036;-63
2021/01/24 07:18:23;;;;;;;12.37;7.43;;;;;;;-0.07;92.09;96759.63;5052321;28;20036;-62
2021/01/24 07:20:51;;;;;;;13.17;7.97;;;;;;;0.01;92.13;96760.38;5046405;28;20384;-63
2021/01/24 07:23:17;;;;;;;15.90;8.80;;;;;;;0.06;92.31;96762.88;5029475;28;20043;-63
2021/01/24 07:25:43;;;;;;;16.00;8.40;;;;;;;0.03;92.00;96768.78;5047635;28;20122;-63
2021/01/24 07:28:09;;;;;;;17.07;8.93;;;;;;;0.13;91.83;96770.34;5038610;28;20079;-63
2021/01/24 07:30:39;;;;;;;14.20;9.27;;;;;;;0.25;91.66;96769.44;5053193;28;20041;-63
2021/01/24 07:33:04;;;;;;;11.20;7.47;;;;;;;0.26;91.50;96781.16;5051566;28;20045;-63
2021/01/24 07:35:34;;;;;;;11.23;6.37;;;;;;;0.40;90.89;96769.28;5053342;28;20055;-62
2021/01/24 07:38:00;;;;;;;10.67;5.97;;;;;;;0.30;90.64;96788.69;5051934;28;20071;-62
2021/01/24 07:40:25;;;;;;;20.30;8.57;;;;;;;0.33;90.44;96792.88;5054029;28;20365;-63
2021/01/24 07:42:51;;;;;;;11.83;6.77;;;;;;;0.43;90.18;96795.31;5047172;28;20128;-62
2021/01/24 07:45:16;;;;;;;11.50;6.27;;;;;;;0.39;90.26;96805.41;5035978;28;20040;-63
2021/01/24 07:47:42;;;;;;;8.50;5.20;;;;;;;0.55;90.03;96793.53;5049178;28;20037;-63
2021/01/24 07:50:08;;;;;;;7.93;4.93;;;;;;;0.53;89.58;96800.25;5040605;28;20334;-63
2021/01/24 07:52:33;;;;;;;6.60;4.80;;;;;;;0.67;88.94;96806.03;5035685;28;20031;-63
2021/01/24 07:54:59;;;;;;;6.03;4.73;;;;;;;0.75;88.74;96784.91;5053020;28;20041;-63
2021/01/24 07:57:25;;;;;;;9.67;5.80;;;;;;;0.79;88.97;96806.72;5052971;28;20063;-63
2021/01/24 07:59:50;;;;;;;9.57;5.97;;;;;;;1.01;87.94;96799.78;5055459;28;20584;-62
2021/01/24 08:02:17;;;;;;;9.10;5.87;;;;;;;1.10;87.48;96806.41;5056436;28;20036;-62
2021/01/24 08:04:42;;;;;;;6.70;4.90;;;;;;;1.37;87.18;96811.13;5054201;28;20375;-63
2021/01/24 08:07:08;;;;;;;10.60;4.00;;;;;;;1.53;86.26;96819.34;5056343;28;20036;-62
2021/01/24 08:09:34;;;;;;;7.70;4.20;;;;;;;1.60;85.76;96826.81;5055551;28;20033;-62
2021/01/24 08:12:08;;;;;;;8.07;4.03;;;;;;;1.89;84.56;96828.13;5053808;28;20032;-63
2021/01/24 08:14:34;;;;;;;4.27;3.00;;;;;;;1.95;84.00;96828.88;5037270;28;20030;-63
2021/01/24 08:17:00;;;;;;;5.07;3.60;;;;;;;1.96;83.71;96840.63;5039283;28;20037;-63
2021/01/24 08:19:27;;;;;;;5.33;3.17;;;;;;;2.28;82.96;96837.66;5048793;28;20041;-63
2021/01/24 08:21:53;;;;;;;4.17;3.00;;;;;;;2.42;81.89;96827.31;5053901;28;20380;-63
2021/01/24 08:24:19;;;;;;;4.70;3.97;;;;;;;2.34;81.90;96845.13;5029569;28;20025;-64
2021/01/24 08:26:46;;;;;;;5.27;3.47;;;;;;;2.44;82.28;96835.69;5045517;28;23005;-64
2021/01/24 08:29:11;;;;;;;6.83;3.33;;;;;;;2.57;80.40;96847.28;5047010;28;20339;-62
2021/01/24 08:31:39;;;;;;;6.50;3.30;;;;;;;2.90;80.17;96833.22;5020922;28;20104;-63
2021/01/24 08:34:05;;;;;;;12.10;4.43;;;;;;;2.93;79.67;96845.84;4994033;28;20034;-63
2021/01/24 08:36:31;;;;;;;7.93;3.80;;;;;;;3.11;78.73;96850.56;4995226;28;20121;-63
2021/01/24 08:38:59;;;;;;;5.47;3.07;;;;;;;3.43;78.28;96860.09;4994891;28;20130;-62
2021/01/24 08:41:39;;;;;;;5.40;3.23;;;;;;;3.45;77.91;96871.00;5001908;28;20029;-64
2021/01/24 08:44:15;;;;;;;5.33;3.57;;;;;;;3.78;77.98;96872.06;4999288;28;20033;-63
2021/01/24 08:46:49;;;;;;;3.20;2.87;;;;;;;3.94;76.55;96876.78;4994723;28;20045;-63
2021/01/24 08:49:24;;;;;;;4.63;3.80;;;;;;;3.91;74.45;96869.22;4996890;28;20362;-62
2021/01/24 08:51:54;;;;;;;;;;;;;;;3.89;74.60;96870.97;5014386;28;20049;-62
2021/01/24 08:54:23;;;;;;;5.63;3.20;;;;;;;3.95;75.00;96875.06;5015237;28;20249;-62
2021/01/24 08:56:50;;;;;;;5.43;3.77;;;;;;;4.07;75.36;96868.03;5013737;28;20159;-61
2021/01/24 08:59:35;;;;;;;5.70;2.80;;;;;;;4.09;75.00;96880.69;5015037;28;20363;-62
2021/01/24 09:02:01;;;;;;;3.13;2.47;;;;;;;4.01;73.95;96880.00;5014103;28;20547;-64
2021/01/24 09:04:29;;;;;;;4.00;2.77;;;;;;;4.07;72.56;96884.97;5013143;28;20175;-62
2021/01/24 09:07:06;;;;;;;5.47;3.60;;;;;;;4.05;72.71;96879.91;5013943;28;20030;-62
2021/01/24 09:09:36;;;;;;;6.10;3.87;;;;;;;4.23;72.78;96893.91;5010038;28;20743;-62
2021/01/24 09:12:02;;;;;;;5.40;3.80;;;;;;;4.61;72.40;96885.41;5009389;28;20042;-63
2021/01/24 09:14:28;;;;;;;3.33;2.80;;;;;;;4.83;72.05;96886.56;5007910;28;20038;-63
2021/01/24 09:17:06;;;;;;;3.23;2.20;;;;;;;5.14;70.48;96889.16;5007422;28;20458;-64
2021/01/24 09:19:33;;;;;;;2.87;2.30;;;;;;;5.22;69.71;96897.41;5007065;28;20034;-65
2021/01/24 09:21:59;;;;;;;3.20;2.30;;;;;;;5.40;69.92;96906.28;5009487;28;20026;-66
2021/01/24 09:24:24;;;;;;;2.90;2.33;;;;;;;5.37;69.61;96897.03;5011523;28;20053;-66
2021/01/24 09:26:50;;;;;;;2.97;2.23;;;;;;;5.50;69.98;96893.28;5005323;28;20046;-66
2021/01/24 09:29:16;;;;;;;3.23;2.30;;;;;;;5.52;68.54;96891.53;5009855;28;20320;-65
2021/01/24 09:31:42;;;;;;;2.40;1.90;;;;;;;5.53;68.71;96895.75;5023782;28;20052;-67
2021/01/24 09:34:07;;;;;;;3.10;2.00;;;;;;;5.52;68.57;96891.53;5035363;28;20041;-66
2021/01/24 09:36:34;;;;;;;3.27;1.83;;;;;;;5.65;68.89;96901.34;5049155;28;20033;-67
2021/01/24 09:39:00;;;;;;;4.43;3.30;;;;;;;5.53;67.63;96893.19;5051512;28;20033;-65
2021/01/24 09:41:26;;;;;;;3.63;2.83;;;;;;;5.33;68.67;96887.81;5053238;28;20039;-65
2021/01/24 09:43:51;;;;;;;3.07;2.30;;;;;;;5.42;69.60;96885.03;5055721;28;20457;-65
2021/01/24 09:46:16;;;;;;;3.43;2.30;;;;;;;5.37;68.16;96886.03;5053794;28;20449;-64
2021/01/24 09:48:42;;;;;;;3.37;2.00;;;;;;;5.54;68.02;96881.31;5055947;28;20072;-63
2021/01/24 09:51:09;;;;;;;5.83;3.43;;;;;;;5.55;67.68;96882.16;5054257;28;20033;-64
2021/01/24 09:53:39;;;;;;;3.77;2.53;;;;;;;5.32;67.32;96883.59;5029417;28;20103;-64
2021/01/24 09:56:05;;;;;;;3.43;2.30;;;;;;;5.33;67.42;96890.38;5036114;28;20033;-62
2021/01/24 09:58:31;;;;;;;2.20;1.80;;;;;;;5.61;65.67;96884.53;5052038;28;20112;-62
2021/01/24 10:00:56;;;;;;;2.33;1.70;;;;;;;5.71;66.17;96881.69;5052869;28;20564;-62
2021/01/24 10:03:21;;;;;;;2.43;1.93;;;;;;;5.56;65.38;96879.56;5052545;28;20427;-63
2021/01/24 10:05:47;;;;;;;1.80;1.47;;;;;;;5.74;65.30;96871.44;5053065;28;20029;-62
2021/01/24 10:08:12;;;;;;;1.53;1.30;;;;;;;5.65;65.40;96858.97;5052486;28;20033;-62
2021/01/24 10:10:38;;;;;;;1.37;1.23;;;;;;;5.66;63.49;96854.72;5054841;28;20063;-62
2021/01/24 10:13:03;;;;;;;1.60;1.50;;;;;;;5.53;64.32;96854.25;5052819;28;20111;-63
2021/01/24 10:15:28;;;;;;;2.43;1.80;;;;;;;5.23;65.49;96857.59;5053770;28;20063;-62
2021/01/24 10:17:54;;;;;;;2.50;1.77;;;;;;;5.24;65.59;96859.28;5053327;28;20425;-62
2021/01/24 10:20:20;;;;;;;2.67;1.80;;;;;;;5.22;65.71;96856.78;5054812;28;20098;-63
2021/01/24 10:22:45;;;;;;;2.70;2.17;;;;;;;5.47;65.18;96862.06;5035264;28;20033;-62
2021/01/24 10:25:11;;;;;;;2.73;2.07;;;;;;;5.46;65.63;96862.91;5054813;28;20048;-63
2021/01/24 10:27:37;;;;;;;2.67;2.40;;;;;;;5.52;64.93;96861.03;5052954;28;20029;-63
2021/01/24 10:30:03;;;;;;;3.83;2.10;;;;;;;5.48;64.60;96862.00;5054836;28;20025;-62
2021/01/24 10:32:29;;;;;;;2.80;2.17;;;;;;;5.58;64.81;96869.38;5052096;28;20146;-64
2021/01/24 10:34:54;;;;;;;3.20;2.63;;;;;;;5.73;65.44;96867.22;5055196;28;20100;-64
2021/01/24 10:37:19;;;;;;;2.10;1.40;;;;;;;5.93;63.19;96871.78;5053406;28;20047;-63
2021/01/24 10:39:45;;;;;;;0.97;0.70;;;;;;;5.80;58.79;96872.97;5053825;28;20041;-63
2021/01/24 10:42:10;;;;;;;0.90;0.60;;;;;;;5.85;58.76;96869.44;5049934;28;20041;-63
2021/01/24 10:44:35;;;;;;;0.77;0.77;;;;;;;5.94;58.82;96878.56;5036460;28;20039;-63
2021/01/24 10:47:01;;;;;;;0.40;0.40;;;;;;;6.03;54.83;96887.59;5033608;28;20481;-63
2021/01/24 10:49:26;;;;;;;0.63;0.40;;;;;;;5.82;51.29;96881.38;5024626;28;20037;-62
2021/01/24 10:51:52;;;;;;;0.40;0.40;;;;;;;5.80;51.42;96884.00;5053806;28;20045;-62
2021/01/24 10:54:17;;;;;;;0.60;0.57;;;;;;;5.93;49.01;96892.13;5052750;28;20442;-62
2021/01/24 10:56:43;;;;;;;2.47;0.60;;;;;;;5.98;49.03;96891.09;5053868;28;20037;-62
2021/01/24 10:59:08;;;;;;;0.43;0.43;;;;;;;5.87;48.73;96895.69;5052432;28;20434;-62
2021/01/24 11:01:34;;;;;;;0.60;0.50;;;;;;;6.09;50.12;96879.78;5052583;28;20122;-63
2021/01/24 11:04:00;;;;;;;0.73;0.73;;;;;;;6.03;48.27;96905.41;5049031;28;20030;-63
2021/01/24 11:06:25;;;;;;;0.40;0.30;;;;;;;6.16;46.85;96904.16;5033783;28;20144;-62
2021/01/24 11:08:50;;;;;;;0.40;0.40;;;;;;;6.34;46.75;96898.53;5033375;28;20366;-63
2021/01/24 11:11:16;;;;;;;0.57;0.40;;;;;;;6.38;46.08;96903.50;5032704;28;20037;-62
2021/01/24 11:13:41;;;;;;;0.40;0.40;;;;;;;6.52;46.81;96892.06;5051274;28;20037;-62
2021/01/24 11:16:07;;;;;;;0.30;0.30;;;;;;;6.47;44.42;96914.28;5052706;28;20041;-62
2021/01/24 11:18:32;;;;;;;0.30;0.30;;;;;;;6.48;44.95;96911.69;5037440;28;20049;-62
2021/01/24 11:20:57;;;;;;;0.50;0.50;;;;;;;6.67;45.41;96919.59;5033465;28;20044;-63
2021/01/24 11:23:23;;;;;;;0.30;0.23;;;;;;;6.40;43.95;96918.72;5046967;28;20047;-64
2021/01/24 11:25:49;;;;;;;0.27;0.27;;;;;;;6.27;44.72;96914.88;5053246;28;20047;-63
2021/01/24 11:28:14;;;;;;;0.40;0.40;;;;;;;6.21;44.60;96920.97;5052215;28;20056;-65
2021/01/24 11:30:39;;;;;;;0.87;0.30;;;;;;;6.26;43.92;96916.59;5053091;28;20037;-63
2021/01/24 11:33:05;;;;;;;0.30;0.30;;;;;;;6.19;43.92;96922.75;5052149;28;20045;-64
2021/01/24 11:35:30;;;;;;;0.37;0.37;;;;;;;6.25;44.41;96919.16;5039259;28;20084;-64
2021/01/24 11:37:56;;;;;;;0.73;0.60;;;;;;;6.41;44.15;96922.91;5042776;28;20029;-64